ABQ200 OPFA-OPIS
Flight info
| Callsign | ABQ200 |
|---|---|
| Flight time | 0h 33m |
| Altitude | 28000 |
| Route | ENRIR DCT BELKO |
| Aircraft | B738/M-SDE2E3FGHIRWXY/LB1 |
Departure
| Time | 2026-04-23 22:40 |
|---|---|
| Airport | Faisalabad International Airport (OPFA) |
Arrival
| Time | 2026-04-23 23:13 |
|---|---|
| Airport | Islamabad International Airport (OPIS) |
| Time | Latitude | Longitude | Altitude | Speed | Heading |
|---|---|---|---|---|---|
| 2026-04-23 22:23 | 31.36259 | 72.98862 | 599 ft | 0 kts | 310° |
| 2026-04-23 22:35 | 31.36241 | 72.98884 | 599 ft | 4 kts | 335° |
| 2026-04-23 22:35 | 31.36227 | 72.98889 | 599 ft | 4 kts | 20° |
| 2026-04-23 22:36 | 31.36208 | 72.98875 | 599 ft | 1 kts | 41° |
| 2026-04-23 22:36 | 31.36205 | 72.98871 | 599 ft | 0 kts | 41° |
| 2026-04-23 22:38 | 31.36210 | 72.98876 | 599 ft | 1 kts | 40° |
| 2026-04-23 22:38 | 31.36223 | 72.98889 | 599 ft | 6 kts | 40° |
| 2026-04-23 22:38 | 31.36274 | 72.98941 | 599 ft | 8 kts | 46° |
| 2026-04-23 22:38 | 31.36267 | 72.99010 | 599 ft | 11 kts | 123° |
| 2026-04-23 22:39 | 31.36219 | 72.99086 | 599 ft | 9 kts | 126° |
| 2026-04-23 22:39 | 31.36213 | 72.99166 | 598 ft | 12 kts | 45° |
| 2026-04-23 22:39 | 31.37543 | 73.00420 | 599 ft | 0 kts | 216° |
| 2026-04-23 22:39 | 31.37524 | 73.00405 | 599 ft | 17 kts | 215° |
| 2026-04-23 22:40 | 31.37237 | 73.00161 | 599 ft | 84 kts | 217° |
| 2026-04-23 22:40 | 31.36595 | 72.99614 | 600 ft | 142 kts | 216° |
| 2026-04-23 22:40 | 31.34691 | 72.98097 | 1402 ft | 183 kts | 207° |
| 2026-04-23 22:41 | 31.33369 | 72.97619 | 1579 ft | 218 kts | 181° |
| 2026-04-23 22:41 | 31.31847 | 72.97993 | 2215 ft | 231 kts | 151° |
| 2026-04-23 22:41 | 31.30625 | 72.99258 | 2975 ft | 244 kts | 119° |
| 2026-04-23 22:41 | 31.29853 | 73.01086 | 3695 ft | 259 kts | 112° |
| 2026-04-23 22:42 | 31.29171 | 73.03097 | 4425 ft | 271 kts | 109° |
| 2026-04-23 22:42 | 31.28500 | 73.05194 | 5249 ft | 279 kts | 109° |
| 2026-04-23 22:42 | 31.27788 | 73.07337 | 6087 ft | 286 kts | 110° |
| 2026-04-23 22:42 | 31.27030 | 73.09516 | 6921 ft | 293 kts | 111° |
| 2026-04-23 22:43 | 31.26239 | 73.11737 | 7745 ft | 299 kts | 112° |
| 2026-04-23 22:43 | 31.25436 | 73.13997 | 8568 ft | 304 kts | 112° |
| 2026-04-23 22:43 | 31.24627 | 73.16300 | 9383 ft | 308 kts | 112° |
| 2026-04-23 22:43 | 31.24173 | 73.18753 | 10194 ft | 311 kts | 91° |
| 2026-04-23 22:44 | 31.24504 | 73.21241 | 11019 ft | 312 kts | 68° |
| 2026-04-23 22:44 | 31.25592 | 73.23425 | 11766 ft | 317 kts | 52° |
| 2026-04-23 22:44 | 31.26970 | 73.25527 | 12212 ft | 334 kts | 49° |
| 2026-04-23 22:44 | 31.28484 | 73.27678 | 12652 ft | 351 kts | 49° |
| 2026-04-23 22:45 | 31.30074 | 73.29930 | 13124 ft | 365 kts | 49° |
| 2026-04-23 22:45 | 31.31678 | 73.32274 | 13808 ft | 372 kts | 50° |
| 2026-04-23 22:45 | 31.33262 | 73.34644 | 14530 ft | 377 kts | 51° |
| 2026-04-23 22:45 | 31.34879 | 73.37076 | 15277 ft | 381 kts | 51° |
| 2026-04-23 22:46 | 31.36524 | 73.39531 | 15990 ft | 385 kts | 50° |
| 2026-04-23 22:46 | 31.38253 | 73.41945 | 16686 ft | 388 kts | 43° |
| 2026-04-23 22:46 | 31.40436 | 73.43791 | 17392 ft | 389 kts | 25° |
| 2026-04-23 22:46 | 31.43002 | 73.44753 | 18069 ft | 389 kts | 6° |
| 2026-04-23 22:47 | 31.45701 | 73.44659 | 18724 ft | 390 kts | 347° |
| 2026-04-23 22:47 | 31.48265 | 73.43628 | 19363 ft | 392 kts | 336° |
| 2026-04-23 22:47 | 31.50783 | 73.42361 | 19937 ft | 396 kts | 334° |
| 2026-04-23 22:47 | 31.53303 | 73.41013 | 20539 ft | 399 kts | 334° |
| 2026-04-23 22:48 | 31.55844 | 73.39663 | 21120 ft | 403 kts | 334° |
| 2026-04-23 22:48 | 31.58429 | 73.38340 | 21688 ft | 406 kts | 335° |
| 2026-04-23 22:48 | 31.61038 | 73.37037 | 22202 ft | 410 kts | 335° |
| 2026-04-23 22:48 | 31.63674 | 73.35722 | 22730 ft | 413 kts | 335° |
| 2026-04-23 22:49 | 31.66318 | 73.34384 | 23224 ft | 416 kts | 334° |
| 2026-04-23 22:49 | 31.68981 | 73.33022 | 23720 ft | 418 kts | 334° |
| 2026-04-23 22:49 | 31.71656 | 73.31650 | 24168 ft | 421 kts | 334° |
| 2026-04-23 22:49 | 31.74351 | 73.30272 | 24623 ft | 424 kts | 334° |
| 2026-04-23 22:50 | 31.77066 | 73.28890 | 25060 ft | 427 kts | 334° |
| 2026-04-23 22:50 | 31.79798 | 73.27500 | 25486 ft | 429 kts | 334° |
| 2026-04-23 22:50 | 31.82546 | 73.26099 | 25892 ft | 432 kts | 334° |
| 2026-04-23 22:50 | 31.85307 | 73.24687 | 26283 ft | 434 kts | 334° |
| 2026-04-23 22:51 | 31.88085 | 73.23266 | 26659 ft | 436 kts | 334° |
| 2026-04-23 22:51 | 31.90877 | 73.21837 | 27038 ft | 439 kts | 334° |
| 2026-04-23 22:51 | 31.93677 | 73.20404 | 27489 ft | 438 kts | 334° |
| 2026-04-23 22:51 | 31.96471 | 73.18973 | 27772 ft | 440 kts | 335° |
| 2026-04-23 22:52 | 31.99294 | 73.17526 | 27780 ft | 443 kts | 334° |
| 2026-04-23 22:52 | 32.02122 | 73.16076 | 27783 ft | 441 kts | 334° |
| 2026-04-23 22:52 | 32.04925 | 73.14638 | 27787 ft | 440 kts | 334° |
| 2026-04-23 22:52 | 32.07730 | 73.13197 | 27787 ft | 439 kts | 334° |
| 2026-04-23 22:53 | 32.10525 | 73.11760 | 27789 ft | 438 kts | 334° |
| 2026-04-23 22:53 | 32.13275 | 73.10345 | 27797 ft | 437 kts | 334° |
| 2026-04-23 22:53 | 32.16064 | 73.08909 | 27798 ft | 437 kts | 334° |
| 2026-04-23 22:53 | 32.18851 | 73.07474 | 27799 ft | 437 kts | 334° |
| 2026-04-23 22:54 | 32.21635 | 73.06040 | 27799 ft | 436 kts | 334° |
| 2026-04-23 22:54 | 32.24420 | 73.04604 | 27800 ft | 436 kts | 334° |
| 2026-04-23 22:54 | 32.27198 | 73.03170 | 27800 ft | 436 kts | 334° |
| 2026-04-23 22:54 | 32.29978 | 73.01734 | 27800 ft | 436 kts | 334° |
| 2026-04-23 22:55 | 32.32756 | 73.00298 | 27800 ft | 436 kts | 334° |
| 2026-04-23 22:55 | 32.35538 | 72.98860 | 27800 ft | 436 kts | 334° |
| 2026-04-23 22:55 | 32.38313 | 72.97424 | 27799 ft | 436 kts | 334° |
| 2026-04-23 22:55 | 32.41088 | 72.95987 | 27799 ft | 435 kts | 334° |
| 2026-04-23 22:56 | 32.43866 | 72.94548 | 27799 ft | 436 kts | 334° |
| 2026-04-23 22:56 | 32.46639 | 72.93110 | 27801 ft | 435 kts | 334° |
| 2026-04-23 22:56 | 32.49410 | 72.91672 | 27805 ft | 435 kts | 334° |
| 2026-04-23 22:56 | 32.52181 | 72.90234 | 27807 ft | 435 kts | 334° |
| 2026-04-23 22:57 | 32.54954 | 72.88793 | 27807 ft | 435 kts | 334° |
| 2026-04-23 22:57 | 32.57728 | 72.87350 | 27808 ft | 435 kts | 334° |
| 2026-04-23 22:57 | 32.60503 | 72.85907 | 27809 ft | 435 kts | 334° |
| 2026-04-23 22:57 | 32.63277 | 72.84463 | 27407 ft | 437 kts | 334° |
| 2026-04-23 22:58 | 32.66061 | 72.83012 | 26707 ft | 433 kts | 334° |
| 2026-04-23 22:58 | 32.68792 | 72.81591 | 26037 ft | 424 kts | 334° |
| 2026-04-23 22:58 | 32.71465 | 72.80199 | 25403 ft | 415 kts | 333° |
| 2026-04-23 22:58 | 32.74085 | 72.78831 | 24771 ft | 408 kts | 333° |
| 2026-04-23 22:59 | 32.76656 | 72.77488 | 24130 ft | 401 kts | 333° |
| 2026-04-23 22:59 | 32.79187 | 72.76163 | 23506 ft | 394 kts | 333° |
| 2026-04-23 22:59 | 32.81717 | 72.74958 | 22741 ft | 393 kts | 342° |
| 2026-04-23 22:59 | 32.84425 | 72.74611 | 21883 ft | 386 kts | 0° |
| 2026-04-23 23:00 | 32.87010 | 72.75282 | 20177 ft | 387 kts | 22° |
| 2026-04-23 23:00 | 32.89355 | 72.76833 | 18499 ft | 384 kts | 30° |
| 2026-04-23 23:00 | 32.91573 | 72.78563 | 16911 ft | 378 kts | 33° |
| 2026-04-23 23:00 | 32.93672 | 72.80289 | 16170 ft | 356 kts | 32° |
| 2026-04-23 23:01 | 32.95760 | 72.81932 | 15791 ft | 363 kts | 31° |
| 2026-04-23 23:01 | 32.97929 | 72.83552 | 15429 ft | 371 kts | 30° |
| 2026-04-23 23:01 | 33.00160 | 72.85094 | 15163 ft | 373 kts | 29° |
| 2026-04-23 23:01 | 33.02372 | 72.86719 | 14998 ft | 371 kts | 31° |
| 2026-04-23 23:02 | 33.04522 | 72.88360 | 14608 ft | 375 kts | 32° |
| 2026-04-23 23:02 | 33.06681 | 72.90082 | 14346 ft | 370 kts | 32° |
| 2026-04-23 23:02 | 33.08841 | 72.91768 | 13600 ft | 371 kts | 31° |
| 2026-04-23 23:02 | 33.11016 | 72.93406 | 12850 ft | 367 kts | 31° |
| 2026-04-23 23:03 | 33.13158 | 72.94995 | 12106 ft | 358 kts | 31° |
| 2026-04-23 23:03 | 33.15247 | 72.96553 | 11349 ft | 350 kts | 31° |
| 2026-04-23 23:03 | 33.17280 | 72.98089 | 10610 ft | 342 kts | 32° |
| 2026-04-23 23:03 | 33.19254 | 72.99591 | 10082 ft | 329 kts | 32° |
| 2026-04-23 23:04 | 33.21119 | 73.01010 | 9881 ft | 308 kts | 32° |
| 2026-04-23 23:04 | 33.22885 | 73.02350 | 9649 ft | 295 kts | 31° |
| 2026-04-23 23:04 | 33.24611 | 73.03656 | 9190 ft | 290 kts | 31° |
| 2026-04-23 23:04 | 33.26289 | 73.04923 | 8823 ft | 282 kts | 31° |
| 2026-04-23 23:05 | 33.27934 | 73.06167 | 8493 ft | 278 kts | 31° |
| 2026-04-23 23:05 | 33.29559 | 73.07399 | 8176 ft | 276 kts | 32° |
| 2026-04-23 23:05 | 33.31175 | 73.08626 | 7864 ft | 274 kts | 32° |
| 2026-04-23 23:05 | 33.32779 | 73.09846 | 7555 ft | 273 kts | 32° |
| 2026-04-23 23:06 | 33.34377 | 73.11060 | 7249 ft | 271 kts | 32° |
| 2026-04-23 23:06 | 33.35964 | 73.12267 | 6949 ft | 270 kts | 32° |
| 2026-04-23 23:06 | 33.37542 | 73.13468 | 6654 ft | 268 kts | 32° |
| 2026-04-23 23:06 | 33.39110 | 73.14661 | 6346 ft | 266 kts | 32° |
| 2026-04-23 23:07 | 33.40673 | 73.15844 | 6048 ft | 266 kts | 30° |
| 2026-04-23 23:07 | 33.42411 | 73.16538 | 5917 ft | 263 kts | 5° |
| 2026-04-23 23:07 | 33.44233 | 73.16461 | 5828 ft | 264 kts | 355° |
| 2026-04-23 23:07 | 33.45954 | 73.15773 | 5718 ft | 265 kts | 324° |
| 2026-04-23 23:08 | 33.47291 | 73.14259 | 5623 ft | 264 kts | 313° |
| 2026-04-23 23:08 | 33.48448 | 73.12642 | 5500 ft | 255 kts | 309° |
| 2026-04-23 23:08 | 33.49539 | 73.11020 | 5388 ft | 245 kts | 309° |
| 2026-04-23 23:08 | 33.50548 | 73.09414 | 5262 ft | 238 kts | 298° |
| 2026-04-23 23:09 | 33.51105 | 73.07587 | 5141 ft | 232 kts | 284° |
| 2026-04-23 23:09 | 33.51417 | 73.05724 | 4909 ft | 223 kts | 281° |
| 2026-04-23 23:09 | 33.51682 | 73.03955 | 4678 ft | 208 kts | 281° |
| 2026-04-23 23:09 | 33.51934 | 73.02323 | 4479 ft | 191 kts | 281° |
| 2026-04-23 23:10 | 33.52169 | 73.00813 | 4295 ft | 180 kts | 282° |
| 2026-04-23 23:10 | 33.52397 | 72.99351 | 4132 ft | 177 kts | 282° |
| 2026-04-23 23:10 | 33.52623 | 72.97906 | 3963 ft | 177 kts | 282° |
| 2026-04-23 23:10 | 33.52848 | 72.96462 | 3738 ft | 175 kts | 282° |
| 2026-04-23 23:11 | 33.53069 | 72.95041 | 3508 ft | 171 kts | 282° |
| 2026-04-23 23:11 | 33.53285 | 72.93653 | 3296 ft | 167 kts | 282° |
| 2026-04-23 23:11 | 33.53492 | 72.92321 | 3079 ft | 159 kts | 282° |
| 2026-04-23 23:11 | 33.53691 | 72.91037 | 2851 ft | 155 kts | 282° |
| 2026-04-23 23:12 | 33.53883 | 72.89797 | 2674 ft | 145 kts | 282° |
| 2026-04-23 23:12 | 33.54065 | 72.88624 | 2468 ft | 142 kts | 282° |
| 2026-04-23 23:12 | 33.54244 | 72.87469 | 2282 ft | 141 kts | 282° |
| 2026-04-23 23:12 | 33.54423 | 72.86314 | 2090 ft | 140 kts | 281° |
| 2026-04-23 23:13 | 33.54601 | 72.85168 | 1905 ft | 140 kts | 282° |
| 2026-04-23 23:13 | 33.54767 | 72.84055 | 1774 ft | 127 kts | 282° |
| 2026-04-23 23:13 | 33.54896 | 72.83229 | 1763 ft | 68 kts | 279° |
| 2026-04-23 23:13 | 33.54948 | 72.82909 | 1759 ft | 25 kts | 282° |
| 2026-04-23 23:14 | 33.54979 | 72.82715 | 1759 ft | 22 kts | 280° |
| 2026-04-23 23:14 | 33.55004 | 72.82540 | 1760 ft | 17 kts | 281° |
| 2026-04-23 23:14 | 33.55055 | 72.82453 | 1763 ft | 13 kts | 347° |
| 2026-04-23 23:14 | 33.55126 | 72.82462 | 1764 ft | 8 kts | 9° |
| 2026-04-23 23:15 | 33.55171 | 72.82473 | 1766 ft | 6 kts | 18° |
| 2026-04-23 23:15 | 33.55202 | 72.82501 | 1767 ft | 5 kts | 60° |
| 2026-04-23 23:15 | 33.55203 | 72.82521 | 1767 ft | 0 kts | 92° |
| 2026-04-23 23:15 | 33.55202 | 72.82530 | 1767 ft | 2 kts | 92° |
| 2026-04-23 23:16 | 33.55203 | 72.82547 | 1767 ft | 2 kts | 79° |
| 2026-04-23 23:16 | 33.55199 | 72.82591 | 1769 ft | 9 kts | 103° |
| 2026-04-23 23:16 | 33.55181 | 72.82682 | 1771 ft | 13 kts | 103° |
| 2026-04-23 23:16 | 33.55159 | 72.82788 | 1767 ft | 15 kts | 94° |
| 2026-04-23 23:17 | 33.55151 | 72.82917 | 1769 ft | 16 kts | 77° |
| 2026-04-23 23:17 | 33.55217 | 72.83047 | 1771 ft | 20 kts | 56° |
| 2026-04-23 23:17 | 33.55291 | 72.83178 | 1770 ft | 15 kts | 55° |
| 2026-04-23 23:17 | 33.55342 | 72.83269 | 1770 ft | 15 kts | 56° |
| 2026-04-23 23:18 | 33.55359 | 72.83371 | 1771 ft | 12 kts | 106° |
| 2026-04-23 23:18 | 33.55334 | 72.83490 | 1769 ft | 17 kts | 102° |
| 2026-04-23 23:18 | 33.55381 | 72.83582 | 1769 ft | 15 kts | 13° |
| 2026-04-23 23:18 | 33.55419 | 72.83591 | 1769 ft | 0 kts | 10° |